createdAt,value
2019-05-16T00:30:01.229Z,14.60
2019-05-16T00:45:01.050Z,15.60
2019-05-16T00:55:01.067Z,18.40
2019-05-16T01:10:01.044Z,17.70
2019-05-16T01:20:01.082Z,16.60
2019-05-16T01:35:01.063Z,16.10
2019-05-16T02:00:01.042Z,18.00
2019-05-16T02:10:01.046Z,15.90
2019-05-16T02:25:01.074Z,16.90
2019-05-16T03:00:02.028Z,17.00
2019-05-16T10:50:01.099Z,2.70
2019-05-16T11:00:09.205Z,2.20
2019-05-16T11:45:01.160Z,2.40
2019-05-16T11:55:01.048Z,3.80
2019-05-16T12:10:01.048Z,2.20
2019-05-16T12:50:01.060Z,2.00
2019-05-16T13:15:01.058Z,1.70
2019-05-16T14:20:01.070Z,4.90
2019-05-16T14:30:01.086Z,2.50
2019-05-16T15:15:16.064Z,6.90
2019-05-16T16:40:01.205Z,3.90
2019-05-16T19:05:01.753Z,0.00
2019-05-16T19:10:01.061Z,4.70
2019-05-16T19:15:01.185Z,4.50
2019-05-16T19:20:01.146Z,3.80
2019-05-16T19:25:04.008Z,4.40
2019-05-16T19:30:01.739Z,6.10
2019-05-16T19:35:01.153Z,5.50
2019-05-16T19:40:01.130Z,4.50
2019-05-16T19:45:01.195Z,3.90
2019-05-16T19:50:01.175Z,5.80
2019-05-16T19:55:01.247Z,5.00
2019-05-16T20:00:01.083Z,5.90
2019-05-16T20:05:01.147Z,6.00
2019-05-16T20:10:01.167Z,6.80
2019-05-16T20:15:07.861Z,6.30
2019-05-16T20:20:01.092Z,7.50
2019-05-16T20:25:01.112Z,6.90
2019-05-16T20:30:01.186Z,5.80
2019-05-16T20:35:01.436Z,7.20
2019-05-16T20:40:01.147Z,6.10
2019-05-16T20:45:01.287Z,6.20
2019-05-16T20:50:01.197Z,6.30
2019-05-16T20:55:01.092Z,7.70
2019-05-16T21:00:01.270Z,6.40
2019-05-16T21:05:01.121Z,6.00
2019-05-16T21:10:01.120Z,6.90
2019-05-16T21:15:01.195Z,10.90
2019-05-16T21:20:01.082Z,6.80
2019-05-16T21:25:01.133Z,7.50
2019-05-16T21:30:01.163Z,6.60
2019-05-16T21:35:01.089Z,8.00
2019-05-16T21:40:01.058Z,6.60
2019-05-16T21:45:01.070Z,6.80
2019-05-16T21:50:01.143Z,8.00
2019-05-16T21:55:01.133Z,8.00
2019-05-16T22:00:01.168Z,8.20
2019-05-16T22:05:01.125Z,7.30
2019-05-16T22:10:01.192Z,5.30
2019-05-16T22:15:01.092Z,6.60
2019-05-16T22:20:01.095Z,10.10
2019-05-16T22:25:01.065Z,7.80
2019-05-16T22:30:01.090Z,9.00
2019-05-16T22:35:01.082Z,9.00
2019-05-16T22:40:01.065Z,6.40
2019-05-16T22:45:01.073Z,8.00
2019-05-16T22:50:01.089Z,6.00
2019-05-16T22:55:01.147Z,7.00
2019-05-16T23:00:01.080Z,6.10
2019-05-16T23:05:01.086Z,7.80
2019-05-16T23:10:01.083Z,6.70
2019-05-16T23:15:01.054Z,7.40
2019-05-16T23:20:01.132Z,7.60
2019-05-16T23:25:01.064Z,8.00
2019-05-16T23:30:01.096Z,6.80
2019-05-16T23:35:01.071Z,9.40
2019-05-16T23:40:01.105Z,7.20
2019-05-16T23:45:01.073Z,6.70
2019-05-16T23:50:01.070Z,7.00
2019-05-16T23:55:01.069Z,8.40
